AirNav  
 
airports navaids fix Aviation Fuel pilotshop
 1077 users online  

12R Mikeska Field Airport
Brookshire, Texas, USA

GOING TO BROOKSHIRE?

Reserve a HOTEL Rent a CARRent from ENTERPRISE

FAA INFORMATION EFFECTIVE 03 AUGUST 2006

Location

FAA Identifier: 12R
Lat/Long: 29-52-25.8190N / 096-00-15.8440W
29-52.430317N / 096-00.264067W
29.8738386 / -96.0044011
(estimated)
Elevation: 161 ft. / 49 m (estimated)
Variation: 06E (1985)
From city: 6 miles NW of BROOKSHIRE, TX
Time zone: UTC -5 (UTC -6 during Standard Time)
Zip code: 77423

Airport Operations

Airport use: Open to the public
Sectional chart: HOUSTON
Control tower: no
ARTCC: HOUSTON CENTER
FSS: MONTGOMERY COUNTY FLIGHT SERVICE STATION [1-866-689-5992]
FOR FP FILING CALL CXO FSS 1-800-833-5602
NOTAMs facility: CXO (NOTAM-D service available)
Attendance: IREG
Wind indicator: yes
Segmented circle: no

Airport Communications

CTAF: 122.9

Nearby radio navigation aids

VOR radial/distance  VOR name  Freq  Var
ELAr044/20.6EAGLE LAKE VOR/DME116.4008E
TNVr166/25.0NAVASOTA VORTAC115.9008E
IDUr092/29.4INDUSTRY VORTAC110.2008E
IAHr257/34.6HUMBLE VORTAC116.6005E

 
NDB name  Hdg/Dist  Freq  Var  ID
WEISER253/19.228606EEYQ . -.-- --.-
HULL304/23.238805ESGR ... --. .-.
DAVID HOOKS231/27.352105EDWH -.. .-- ....
BRENHAM131/28.436206EBNH -... -. ....
WHARTON006/37.924506EARM .- .-. --

Airport Services

Airframe service: NONE
Powerplant service: NONE

Runway Information

Runway 15/33

Dimensions: 1970 x 60 ft. / 600 x 18 m
Surface: turf, in fair condition
RUNWAY 15  RUNWAY 33
Traffic pattern: leftleft
Obstructions: 15 ft. road, 100 ft. right of centerline35 ft. trees, 100 ft. right of centerline

Airport Operational Statistics

Aircraft operations: 50/year
100% transient general aviation

Additional Remarks

RY 33 +30 FT MKD PLINE 140 FT FM THLD ACROSS APCH.
RY 15 +30 FT PLINE 100 FT FM THLD ACROSS APCH.

Instrument Procedures

There are no published instrument procedures at 12R.

Some nearby airports with instrument procedures:

KIWS - West Houston Airport (18 nm E)
KEYQ - Weiser Air Park (19 nm E)
T51 - May Airport (20 nm NE)
KELA - Eagle Lake Airport (23 nm SW)
KSGR - Sugar Land Regional Airport (24 nm SE)
 
Loc | Ops | Rwys | IFR | FBO | Links
Com | Nav | Svcs | Stats | Notes
 
Area around 12R (Mikeska Field Airport)
 
Road maps at: MapQuest MapPoint Yahoo! Maps Google Rand McNally
Topographic chart at: TopoZone
Satellite photo at: TerraServer Virtual Earth

 
Aerial photo
WARNING: Photo may not be current or correct
Aerial photo of 12R (Mikeska Field Airport)
Do you have a better or more recent aerial photo of Mikeska Field Airport that you would like to share? If so, please send us your photo.

 
Airport distance calculator
Flying to Mikeska Field Airport? Find the distance to fly.

From to 12R

Sunrise and sunset
Times for 19-Aug-2006
 Local
(UTC-5)
 Zulu
(UTC)
Morning civil twilight06:3011:30
Sunrise06:5511:55
Sunset20:0001:00
Evening civil twilight20:2501:25
 
METAR
KSGR 
24nm SE 
191342Z 33006KT 4SM -TSRA BR FEW007 OVC025 24/23 A2996 RMK AO2 LTG DSNT ALQDS P0028 $
KDWH 
26nm NE 
191353Z 06006KT 8SM CLR 29/23 A2998 RMK AO2 SLP148 T02890228
K11R 
28nm NW 
191348Z AUTO 35007KT 10SM VCTS CLR 28/24 A2998
KIAH 
34nm E 
191353Z 05008KT 9SM SCT030 SCT100 BKN250 28/24 A2998 RMK AO2 SLP150 CB DSNT S-SW T02830239
KARM 
38nm S 
191345Z AUTO 03008KT 7SM TS OVC070 23/23 A2996 RMK AO2 P0001 LTG DSNT N THRU E
KHOU 
40nm E 
191353Z 16008KT 1/2SM +TSRA FEW003 BKN010 OVC015CB 24/23 A2997 RMK AO2 RAB1259 SLP153 OCNL LTGICCC SE-SW TS SE-SW MOV NW T02390233 PNO $
KCXO 
42nm NE 
191353Z AUTO VRB05KT 10SM CLR 28/22 A2998 RMK AO2 SLP148 T02830222
KLVJ 
45nm SE 
191353Z AUTO 33003KT 9SM -TSRA BKN015 BKN033 OVC080 25/24 A2999 RMK AO2 LTG DSNT ALQDS SLP153 P0187 T02500239
KCLL 
47nm NW 
191253Z 35005KT 10SM CLR 27/23 A2997
KEFD 
47nm E 
191325Z 16012KT 1/2SM TSRA SCT005 BKN010 BKN050 25/25 A2999
TAF
KIAH 
34nm E 
191203Z 191212 VRB04KT P6SM FEW040CB SCT250
FM1500 09005KT P6SM SCT030CB SCT250
FM1800 12008KT P6SM VCTS SCT040CB BKN250
FM0000 15005KT P6SM SCT250
FM0600 VRB03KT P6SM FEW250
KHOU 
40nm E 
191124Z 191212 VRB04KT P6SM VCTS SCT020 BKN029CB
FM1400 06005KT P6SM VCTS SCT030CB BKN250
FM1800 13008KT P6SM VCTS SCT040CB BKN250
FM0000 15005KT P6SM SCT250
FM0600 00000KT P6SM FEW250
NOTAMs
Click for the latest NOTAMs
NOTAMs are issued by the DoD/FAA and will open in a separate window not controlled by AirNav.

 

 
 

Where to Stay: Hotels, Motels, Resorts, B&Bs, Campgrounds

 In this space we feature lodging establishments that are convenient to the Mikeska Field Airport. If your hotel/inn/B&B/resort is near the Mikeska Field Airport, provides convenient transportation, or is otherwise attractive to pilots, flight crews, and airport users, consider listing it here.  
Feature A Hotel
 

Hotels in other cities near Mikeska Field Airport

2 in Sealy
2 in Katy
1 in Hempstead
 

Would you like to see your business listed on this page?

 If your business provides an interesting product or service to pilots, flight crews, aircraft, or users of the Mikeska Field Airport, you should consider listing it here.  To start the listing process, click on the button below
 
Add a business
 

Other Pages about Mikeska Field Airport

Add a link
 
Copyright © AirNav, LLC. All rights reserved. Privacy Policy  Contact